sensor_id;sensor_type;location;lat;lon;timestamp;P1;durP1;ratioP1;P2;durP2;ratioP2
14066;SDS011;7108;42.684;23.350;2023-05-10T00:02:01;241.07;;;81.57;;
14066;SDS011;7108;42.684;23.350;2023-05-10T00:04:27;233.37;;;82.20;;
14066;SDS011;7108;42.684;23.350;2023-05-10T00:06:53;231.60;;;82.17;;
14066;SDS011;7108;42.684;23.350;2023-05-10T00:09:18;238.67;;;83.73;;
14066;SDS011;7108;42.684;23.350;2023-05-10T00:11:44;231.77;;;80.80;;
14066;SDS011;7108;42.684;23.350;2023-05-10T00:14:09;215.13;;;78.77;;
14066;SDS011;7108;42.684;23.350;2023-05-10T00:16:35;216.83;;;77.43;;
14066;SDS011;7108;42.684;23.350;2023-05-10T00:19:00;223.10;;;81.93;;
14066;SDS011;7108;42.684;23.350;2023-05-10T00:21:26;236.50;;;82.60;;
14066;SDS011;7108;42.684;23.350;2023-05-10T00:23:53;236.10;;;82.00;;
14066;SDS011;7108;42.684;23.350;2023-05-10T00:26:18;237.03;;;85.40;;
14066;SDS011;7108;42.684;23.350;2023-05-10T00:28:44;232.73;;;81.50;;
14066;SDS011;7108;42.684;23.350;2023-05-10T00:31:09;211.07;;;79.67;;
14066;SDS011;7108;42.684;23.350;2023-05-10T00:33:35;212.40;;;77.30;;
14066;SDS011;7108;42.684;23.350;2023-05-10T00:36:00;221.17;;;79.97;;
14066;SDS011;7108;42.684;23.350;2023-05-10T00:38:25;243.53;;;81.23;;
14066;SDS011;7108;42.684;23.350;2023-05-10T00:40:51;246.23;;;82.30;;
14066;SDS011;7108;42.684;23.350;2023-05-10T00:43:16;213.53;;;77.77;;
14066;SDS011;7108;42.684;23.350;2023-05-10T00:45:42;225.83;;;82.10;;
14066;SDS011;7108;42.684;23.350;2023-05-10T00:48:08;215.03;;;79.60;;
14066;SDS011;7108;42.684;23.350;2023-05-10T00:50:34;210.40;;;79.90;;
14066;SDS011;7108;42.684;23.350;2023-05-10T00:52:59;223.70;;;79.90;;
14066;SDS011;7108;42.684;23.350;2023-05-10T00:55:27;226.80;;;81.73;;
14066;SDS011;7108;42.684;23.350;2023-05-10T00:57:53;241.67;;;83.90;;
14066;SDS011;7108;42.684;23.350;2023-05-10T01:00:19;225.40;;;80.43;;
14066;SDS011;7108;42.684;23.350;2023-05-10T01:02:45;224.87;;;81.47;;
14066;SDS011;7108;42.684;23.350;2023-05-10T01:05:11;218.50;;;78.37;;
14066;SDS011;7108;42.684;23.350;2023-05-10T01:07:37;211.17;;;79.13;;
14066;SDS011;7108;42.684;23.350;2023-05-10T01:10:02;214.93;;;79.40;;
14066;SDS011;7108;42.684;23.350;2023-05-10T01:12:28;245.70;;;84.57;;
14066;SDS011;7108;42.684;23.350;2023-05-10T01:14:53;228.93;;;82.90;;
14066;SDS011;7108;42.684;23.350;2023-05-10T01:17:20;230.83;;;81.93;;
14066;SDS011;7108;42.684;23.350;2023-05-10T01:19:46;246.07;;;83.80;;
14066;SDS011;7108;42.684;23.350;2023-05-10T01:25:01;210.67;;;76.67;;
14066;SDS011;7108;42.684;23.350;2023-05-10T01:28:08;241.57;;;81.67;;
14066;SDS011;7108;42.684;23.350;2023-05-10T01:36:51;239.83;;;79.30;;
14066;SDS011;7108;42.684;23.350;2023-05-10T01:39:40;239.20;;;81.40;;
14066;SDS011;7108;42.684;23.350;2023-05-10T01:42:10;212.83;;;75.60;;
14066;SDS011;7108;42.684;23.350;2023-05-10T01:50:19;227.47;;;80.07;;
14066;SDS011;7108;42.684;23.350;2023-05-10T01:52:51;233.53;;;77.20;;
14066;SDS011;7108;42.684;23.350;2023-05-10T01:55:20;228.87;;;78.03;;
14066;SDS011;7108;42.684;23.350;2023-05-10T01:57:51;244.27;;;83.07;;
14066;SDS011;7108;42.684;23.350;2023-05-10T02:00:21;229.83;;;78.60;;
14066;SDS011;7108;42.684;23.350;2023-05-10T02:02:48;225.33;;;77.80;;
14066;SDS011;7108;42.684;23.350;2023-05-10T02:05:16;228.53;;;78.53;;
14066;SDS011;7108;42.684;23.350;2023-05-10T02:07:43;229.80;;;79.30;;
14066;SDS011;7108;42.684;23.350;2023-05-10T02:10:10;201.63;;;76.00;;
14066;SDS011;7108;42.684;23.350;2023-05-10T02:12:41;206.93;;;78.57;;
14066;SDS011;7108;42.684;23.350;2023-05-10T02:15:10;203.80;;;75.17;;
14066;SDS011;7108;42.684;23.350;2023-05-10T02:17:37;213.97;;;77.50;;
14066;SDS011;7108;42.684;23.350;2023-05-10T02:20:05;202.83;;;75.73;;
14066;SDS011;7108;42.684;23.350;2023-05-10T02:22:32;213.83;;;77.20;;
14066;SDS011;7108;42.684;23.350;2023-05-10T02:25:00;219.43;;;76.60;;
14066;SDS011;7108;42.684;23.350;2023-05-10T02:27:27;234.23;;;78.57;;
14066;SDS011;7108;42.684;23.350;2023-05-10T02:29:54;241.27;;;80.83;;
14066;SDS011;7108;42.684;23.350;2023-05-10T02:32:22;226.40;;;79.83;;
14066;SDS011;7108;42.684;23.350;2023-05-10T02:34:49;226.63;;;78.60;;
14066;SDS011;7108;42.684;23.350;2023-05-10T02:37:17;228.63;;;79.83;;
14066;SDS011;7108;42.684;23.350;2023-05-10T02:39:45;226.47;;;80.23;;
14066;SDS011;7108;42.684;23.350;2023-05-10T02:42:19;225.47;;;78.57;;
14066;SDS011;7108;42.684;23.350;2023-05-10T02:44:47;220.57;;;76.10;;
14066;SDS011;7108;42.684;23.350;2023-05-10T02:47:15;228.67;;;78.73;;
14066;SDS011;7108;42.684;23.350;2023-05-10T02:49:42;215.07;;;74.13;;
14066;SDS011;7108;42.684;23.350;2023-05-10T02:52:08;202.93;;;75.37;;
14066;SDS011;7108;42.684;23.350;2023-05-10T02:54:41;210.50;;;75.00;;
14066;SDS011;7108;42.684;23.350;2023-05-10T02:57:11;215.77;;;78.97;;
14066;SDS011;7108;42.684;23.350;2023-05-10T02:59:41;209.20;;;75.23;;
14066;SDS011;7108;42.684;23.350;2023-05-10T03:02:08;209.83;;;76.77;;
14066;SDS011;7108;42.684;23.350;2023-05-10T03:04:35;206.37;;;74.10;;
14066;SDS011;7108;42.684;23.350;2023-05-10T03:07:01;213.77;;;76.37;;
14066;SDS011;7108;42.684;23.350;2023-05-10T03:09:26;236.33;;;78.50;;
14066;SDS011;7108;42.684;23.350;2023-05-10T03:14:53;223.80;;;77.00;;
14066;SDS011;7108;42.684;23.350;2023-05-10T03:17:29;230.73;;;77.47;;
14066;SDS011;7108;42.684;23.350;2023-05-10T03:20:03;218.60;;;75.13;;
14066;SDS011;7108;42.684;23.350;2023-05-10T03:22:36;207.07;;;73.70;;
14066;SDS011;7108;42.684;23.350;2023-05-10T03:25:06;216.93;;;74.67;;
14066;SDS011;7108;42.684;23.350;2023-05-10T03:27:33;202.27;;;71.43;;
14066;SDS011;7108;42.684;23.350;2023-05-10T03:30:01;209.70;;;73.40;;
14066;SDS011;7108;42.684;23.350;2023-05-10T03:32:28;230.70;;;78.07;;
14066;SDS011;7108;42.684;23.350;2023-05-10T03:34:56;244.37;;;81.53;;
14066;SDS011;7108;42.684;23.350;2023-05-10T03:37:22;234.37;;;77.00;;
14066;SDS011;7108;42.684;23.350;2023-05-10T03:39:47;229.80;;;76.50;;
14066;SDS011;7108;42.684;23.350;2023-05-10T03:42:13;225.53;;;76.37;;
14066;SDS011;7108;42.684;23.350;2023-05-10T03:44:38;201.53;;;73.03;;
14066;SDS011;7108;42.684;23.350;2023-05-10T03:47:04;199.17;;;72.47;;
14066;SDS011;7108;42.684;23.350;2023-05-10T03:49:30;211.30;;;73.70;;
14066;SDS011;7108;42.684;23.350;2023-05-10T03:51:55;244.60;;;84.90;;
14066;SDS011;7108;42.684;23.350;2023-05-10T03:54:20;222.83;;;74.33;;
14066;SDS011;7108;42.684;23.350;2023-05-10T03:56:46;233.53;;;76.97;;
14066;SDS011;7108;42.684;23.350;2023-05-10T03:59:13;214.27;;;73.73;;
14066;SDS011;7108;42.684;23.350;2023-05-10T04:01:38;214.30;;;75.07;;
14066;SDS011;7108;42.684;23.350;2023-05-10T04:04:04;212.33;;;74.70;;
14066;SDS011;7108;42.684;23.350;2023-05-10T04:06:29;206.57;;;74.63;;
14066;SDS011;7108;42.684;23.350;2023-05-10T04:08:55;247.30;;;80.10;;
14066;SDS011;7108;42.684;23.350;2023-05-10T04:11:21;237.50;;;78.37;;
14066;SDS011;7108;42.684;23.350;2023-05-10T04:13:46;227.93;;;75.27;;
14066;SDS011;7108;42.684;23.350;2023-05-10T04:16:12;220.67;;;76.17;;
14066;SDS011;7108;42.684;23.350;2023-05-10T04:18:37;202.07;;;71.80;;
14066;SDS011;7108;42.684;23.350;2023-05-10T04:21:04;207.93;;;73.40;;
14066;SDS011;7108;42.684;23.350;2023-05-10T04:23:35;213.47;;;76.50;;
14066;SDS011;7108;42.684;23.350;2023-05-10T04:26:01;226.50;;;74.70;;
14066;SDS011;7108;42.684;23.350;2023-05-10T04:28:27;222.87;;;74.73;;
14066;SDS011;7108;42.684;23.350;2023-05-10T04:30:53;239.60;;;77.07;;
14066;SDS011;7108;42.684;23.350;2023-05-10T04:33:18;230.63;;;76.60;;
14066;SDS011;7108;42.684;23.350;2023-05-10T04:35:44;254.57;;;79.23;;
14066;SDS011;7108;42.684;23.350;2023-05-10T04:38:10;225.43;;;74.87;;
14066;SDS011;7108;42.684;23.350;2023-05-10T04:40:35;215.67;;;73.73;;
14066;SDS011;7108;42.684;23.350;2023-05-10T04:43:01;216.03;;;73.73;;
14066;SDS011;7108;42.684;23.350;2023-05-10T04:45:26;221.97;;;76.80;;
14066;SDS011;7108;42.684;23.350;2023-05-10T04:47:51;237.57;;;78.43;;
14066;SDS011;7108;42.684;23.350;2023-05-10T04:50:17;230.33;;;77.47;;
14066;SDS011;7108;42.684;23.350;2023-05-10T04:52:42;220.17;;;74.47;;
14066;SDS011;7108;42.684;23.350;2023-05-10T04:55:08;200.07;;;71.83;;
14066;SDS011;7108;42.684;23.350;2023-05-10T04:57:34;208.20;;;73.23;;
14066;SDS011;7108;42.684;23.350;2023-05-10T05:00:00;218.93;;;74.80;;
14066;SDS011;7108;42.684;23.350;2023-05-10T05:02:25;226.10;;;76.07;;
14066;SDS011;7108;42.684;23.350;2023-05-10T05:04:51;253.40;;;80.97;;
14066;SDS011;7108;42.684;23.350;2023-05-10T05:07:16;241.17;;;78.87;;
14066;SDS011;7108;42.684;23.350;2023-05-10T05:09:42;263.93;;;82.77;;
14066;SDS011;7108;42.684;23.350;2023-05-10T05:12:07;214.13;;;75.70;;
14066;SDS011;7108;42.684;23.350;2023-05-10T05:14:33;232.50;;;77.17;;
14066;SDS011;7108;42.684;23.350;2023-05-10T05:16:58;243.80;;;75.77;;
14066;SDS011;7108;42.684;23.350;2023-05-10T05:19:24;231.73;;;76.47;;
14066;SDS011;7108;42.684;23.350;2023-05-10T05:21:49;252.00;;;78.17;;
14066;SDS011;7108;42.684;23.350;2023-05-10T05:24:15;204.93;;;73.53;;
14066;SDS011;7108;42.684;23.350;2023-05-10T05:26:40;211.43;;;75.20;;
14066;SDS011;7108;42.684;23.350;2023-05-10T05:29:06;200.13;;;74.93;;
14066;SDS011;7108;42.684;23.350;2023-05-10T05:31:31;208.07;;;73.23;;
14066;SDS011;7108;42.684;23.350;2023-05-10T05:33:57;249.23;;;78.27;;
14066;SDS011;7108;42.684;23.350;2023-05-10T05:36:22;231.97;;;77.10;;
14066;SDS011;7108;42.684;23.350;2023-05-10T05:38:48;224.67;;;76.40;;
14066;SDS011;7108;42.684;23.350;2023-05-10T05:41:13;224.20;;;78.40;;
14066;SDS011;7108;42.684;23.350;2023-05-10T05:43:39;213.93;;;78.40;;
14066;SDS011;7108;42.684;23.350;2023-05-10T05:46:04;224.63;;;77.43;;
14066;SDS011;7108;42.684;23.350;2023-05-10T05:48:30;203.47;;;73.97;;
14066;SDS011;7108;42.684;23.350;2023-05-10T05:50:56;232.67;;;77.43;;
14066;SDS011;7108;42.684;23.350;2023-05-10T05:53:22;226.87;;;78.33;;
14066;SDS011;7108;42.684;23.350;2023-05-10T05:55:51;241.57;;;77.13;;
14066;SDS011;7108;42.684;23.350;2023-05-10T05:58:21;223.70;;;76.40;;
14066;SDS011;7108;42.684;23.350;2023-05-10T06:00:47;227.10;;;75.10;;
14066;SDS011;7108;42.684;23.350;2023-05-10T06:03:13;221.97;;;74.43;;
14066;SDS011;7108;42.684;23.350;2023-05-10T06:05:39;209.20;;;73.97;;
14066;SDS011;7108;42.684;23.350;2023-05-10T06:08:04;219.80;;;75.00;;
14066;SDS011;7108;42.684;23.350;2023-05-10T06:10:30;210.03;;;75.60;;
14066;SDS011;7108;42.684;23.350;2023-05-10T06:12:55;253.07;;;81.77;;
14066;SDS011;7108;42.684;23.350;2023-05-10T06:15:21;245.23;;;80.07;;
14066;SDS011;7108;42.684;23.350;2023-05-10T06:17:46;233.43;;;77.47;;
14066;SDS011;7108;42.684;23.350;2023-05-10T06:20:14;226.33;;;76.93;;
14066;SDS011;7108;42.684;23.350;2023-05-10T06:22:40;219.43;;;75.63;;
14066;SDS011;7108;42.684;23.350;2023-05-10T06:25:06;218.77;;;75.03;;
14066;SDS011;7108;42.684;23.350;2023-05-10T06:27:32;200.63;;;75.27;;
14066;SDS011;7108;42.684;23.350;2023-05-10T06:29:57;237.10;;;77.40;;
14066;SDS011;7108;42.684;23.350;2023-05-10T06:32:23;245.17;;;82.10;;
14066;SDS011;7108;42.684;23.350;2023-05-10T06:34:48;246.33;;;78.07;;
14066;SDS011;7108;42.684;23.350;2023-05-10T06:37:14;239.20;;;78.60;;
14066;SDS011;7108;42.684;23.350;2023-05-10T06:39:39;211.13;;;73.20;;
14066;SDS011;7108;42.684;23.350;2023-05-10T06:42:04;231.10;;;75.73;;
14066;SDS011;7108;42.684;23.350;2023-05-10T06:44:32;207.87;;;74.10;;
14066;SDS011;7108;42.684;23.350;2023-05-10T06:46:58;253.87;;;77.90;;
14066;SDS011;7108;42.684;23.350;2023-05-10T06:49:23;209.50;;;75.37;;
14066;SDS011;7108;42.684;23.350;2023-05-10T06:51:49;240.47;;;77.73;;
14066;SDS011;7108;42.684;23.350;2023-05-10T06:54:14;227.63;;;74.87;;
14066;SDS011;7108;42.684;23.350;2023-05-10T06:56:43;226.10;;;75.77;;
14066;SDS011;7108;42.684;23.350;2023-05-10T06:59:08;215.30;;;75.03;;
14066;SDS011;7108;42.684;23.350;2023-05-10T07:01:33;214.87;;;74.70;;
14066;SDS011;7108;42.684;23.350;2023-05-10T07:03:59;240.90;;;77.10;;
14066;SDS011;7108;42.684;23.350;2023-05-10T07:06:24;241.00;;;78.73;;
14066;SDS011;7108;42.684;23.350;2023-05-10T07:08:50;238.40;;;76.43;;
14066;SDS011;7108;42.684;23.350;2023-05-10T07:11:15;239.20;;;79.50;;
14066;SDS011;7108;42.684;23.350;2023-05-10T07:13:41;233.33;;;77.90;;
14066;SDS011;7108;42.684;23.350;2023-05-10T07:16:09;211.53;;;75.77;;
14066;SDS011;7108;42.684;23.350;2023-05-10T07:18:35;231.13;;;79.50;;
14066;SDS011;7108;42.684;23.350;2023-05-10T07:21:01;237.80;;;79.23;;
14066;SDS011;7108;42.684;23.350;2023-05-10T07:23:26;234.97;;;78.70;;
14066;SDS011;7108;42.684;23.350;2023-05-10T07:25:52;233.47;;;80.83;;
14066;SDS011;7108;42.684;23.350;2023-05-10T07:28:17;253.10;;;81.17;;
14066;SDS011;7108;42.684;23.350;2023-05-10T07:30:43;249.80;;;82.03;;
14066;SDS011;7108;42.684;23.350;2023-05-10T07:33:09;213.43;;;76.60;;
14066;SDS011;7108;42.684;23.350;2023-05-10T07:35:35;221.53;;;77.17;;
14066;SDS011;7108;42.684;23.350;2023-05-10T07:38:01;236.90;;;81.83;;
14066;SDS011;7108;42.684;23.350;2023-05-10T07:40:27;235.17;;;79.00;;
14066;SDS011;7108;42.684;23.350;2023-05-10T07:42:53;228.43;;;80.17;;
14066;SDS011;7108;42.684;23.350;2023-05-10T07:45:19;235.70;;;81.33;;
14066;SDS011;7108;42.684;23.350;2023-05-10T07:47:44;257.47;;;81.13;;
14066;SDS011;7108;42.684;23.350;2023-05-10T07:50:10;223.20;;;77.50;;
14066;SDS011;7108;42.684;23.350;2023-05-10T07:52:35;226.70;;;78.20;;
14066;SDS011;7108;42.684;23.350;2023-05-10T07:55:01;238.57;;;78.83;;
14066;SDS011;7108;42.684;23.350;2023-05-10T07:57:29;219.20;;;78.23;;
14066;SDS011;7108;42.684;23.350;2023-05-10T07:59:55;253.23;;;80.83;;
14066;SDS011;7108;42.684;23.350;2023-05-10T08:02:21;233.87;;;78.83;;
14066;SDS011;7108;42.684;23.350;2023-05-10T08:04:46;231.73;;;78.67;;
14066;SDS011;7108;42.684;23.350;2023-05-10T08:07:11;223.43;;;78.20;;
14066;SDS011;7108;42.684;23.350;2023-05-10T08:09:37;212.47;;;77.13;;
14066;SDS011;7108;42.684;23.350;2023-05-10T08:12:02;228.07;;;76.90;;
14066;SDS011;7108;42.684;23.350;2023-05-10T08:14:28;228.93;;;77.07;;
14066;SDS011;7108;42.684;23.350;2023-05-10T08:16:54;241.70;;;77.57;;
14066;SDS011;7108;42.684;23.350;2023-05-10T08:19:21;220.30;;;77.23;;
14066;SDS011;7108;42.684;23.350;2023-05-10T08:21:47;229.20;;;78.50;;
14066;SDS011;7108;42.684;23.350;2023-05-10T08:24:13;219.10;;;76.77;;
14066;SDS011;7108;42.684;23.350;2023-05-10T08:26:38;221.17;;;77.50;;
14066;SDS011;7108;42.684;23.350;2023-05-10T08:29:04;220.70;;;77.77;;
14066;SDS011;7108;42.684;23.350;2023-05-10T08:31:29;213.67;;;76.83;;
14066;SDS011;7108;42.684;23.350;2023-05-10T08:33:55;242.73;;;79.53;;
14066;SDS011;7108;42.684;23.350;2023-05-10T08:36:20;228.60;;;79.60;;
14066;SDS011;7108;42.684;23.350;2023-05-10T08:38:52;237.63;;;78.93;;
14066;SDS011;7108;42.684;23.350;2023-05-10T08:41:21;252.70;;;81.90;;
14066;SDS011;7108;42.684;23.350;2023-05-10T08:43:49;231.27;;;81.30;;
14066;SDS011;7108;42.684;23.350;2023-05-10T08:46:16;234.90;;;78.27;;
14066;SDS011;7108;42.684;23.350;2023-05-10T08:48:43;229.07;;;80.57;;
14066;SDS011;7108;42.684;23.350;2023-05-10T08:51:09;230.07;;;77.30;;
14066;SDS011;7108;42.684;23.350;2023-05-10T08:53:38;220.67;;;75.73;;
14066;SDS011;7108;42.684;23.350;2023-05-10T08:56:04;243.60;;;80.37;;
14066;SDS011;7108;42.684;23.350;2023-05-10T08:58:30;214.20;;;77.60;;
14066;SDS011;7108;42.684;23.350;2023-05-10T09:00:55;248.67;;;80.03;;
14066;SDS011;7108;42.684;23.350;2023-05-10T09:03:22;234.03;;;79.90;;
14066;SDS011;7108;42.684;23.350;2023-05-10T09:05:48;238.23;;;78.93;;
14066;SDS011;7108;42.684;23.350;2023-05-10T09:08:14;229.50;;;79.07;;
14066;SDS011;7108;42.684;23.350;2023-05-10T09:10:43;222.97;;;77.77;;
14066;SDS011;7108;42.684;23.350;2023-05-10T09:13:12;224.67;;;79.07;;
14066;SDS011;7108;42.684;23.350;2023-05-10T09:15:39;225.83;;;77.33;;
14066;SDS011;7108;42.684;23.350;2023-05-10T09:18:04;212.60;;;74.73;;
14066;SDS011;7108;42.684;23.350;2023-05-10T09:20:30;227.27;;;78.00;;
14066;SDS011;7108;42.684;23.350;2023-05-10T09:22:56;247.63;;;80.10;;
14066;SDS011;7108;42.684;23.350;2023-05-10T09:25:21;226.83;;;76.07;;
14066;SDS011;7108;42.684;23.350;2023-05-10T09:27:47;257.20;;;83.67;;
14066;SDS011;7108;42.684;23.350;2023-05-10T09:30:17;231.60;;;78.33;;
14066;SDS011;7108;42.684;23.350;2023-05-10T09:32:48;241.27;;;83.80;;
14066;SDS011;7108;42.684;23.350;2023-05-10T09:35:17;237.20;;;79.70;;
14066;SDS011;7108;42.684;23.350;2023-05-10T09:37:48;231.90;;;82.83;;
14066;SDS011;7108;42.684;23.350;2023-05-10T09:40:15;251.17;;;83.47;;
14066;SDS011;7108;42.684;23.350;2023-05-10T09:43:03;234.20;;;81.87;;
14066;SDS011;7108;42.684;23.350;2023-05-10T09:45:31;213.97;;;75.17;;
14066;SDS011;7108;42.684;23.350;2023-05-10T09:47:58;251.50;;;82.23;;
14066;SDS011;7108;42.684;23.350;2023-05-10T09:50:25;238.97;;;82.33;;
14066;SDS011;7108;42.684;23.350;2023-05-10T09:52:52;233.80;;;82.47;;
14066;SDS011;7108;42.684;23.350;2023-05-10T09:55:38;247.53;;;81.80;;
14066;SDS011;7108;42.684;23.350;2023-05-10T09:58:05;232.53;;;80.27;;
14066;SDS011;7108;42.684;23.350;2023-05-10T10:00:35;207.70;;;75.77;;
14066;SDS011;7108;42.684;23.350;2023-05-10T10:03:01;219.93;;;76.67;;
14066;SDS011;7108;42.684;23.350;2023-05-10T10:05:28;239.77;;;79.13;;
14066;SDS011;7108;42.684;23.350;2023-05-10T10:07:55;257.13;;;83.83;;
14066;SDS011;7108;42.684;23.350;2023-05-10T10:10:22;243.73;;;80.60;;
14066;SDS011;7108;42.684;23.350;2023-05-10T10:12:48;244.17;;;79.77;;
14066;SDS011;7108;42.684;23.350;2023-05-10T10:15:14;232.20;;;77.63;;
14066;SDS011;7108;42.684;23.350;2023-05-10T10:17:41;226.80;;;77.63;;
14066;SDS011;7108;42.684;23.350;2023-05-10T10:20:09;225.77;;;76.83;;
14066;SDS011;7108;42.684;23.350;2023-05-10T10:22:36;222.53;;;76.60;;
14066;SDS011;7108;42.684;23.350;2023-05-10T10:25:01;209.50;;;76.30;;
14066;SDS011;7108;42.684;23.350;2023-05-10T10:30:18;225.43;;;76.67;;
14066;SDS011;7108;42.684;23.350;2023-05-10T10:36:01;229.97;;;76.43;;
14066;SDS011;7108;42.684;23.350;2023-05-10T10:41:26;235.63;;;81.13;;
14066;SDS011;7108;42.684;23.350;2023-05-10T10:52:45;242.23;;;82.53;;
14066;SDS011;7108;42.684;23.350;2023-05-10T10:57:52;209.10;;;74.90;;
14066;SDS011;7108;42.684;23.350;2023-05-10T11:00:31;238.47;;;81.20;;
14066;SDS011;7108;42.684;23.350;2023-05-10T11:03:11;246.53;;;80.07;;
14066;SDS011;7108;42.684;23.350;2023-05-10T11:05:43;331.23;;;87.30;;
14066;SDS011;7108;42.684;23.350;2023-05-10T11:16:13;219.53;;;77.07;;
14066;SDS011;7108;42.684;23.350;2023-05-10T11:21:32;235.80;;;78.50;;
14066;SDS011;7108;42.684;23.350;2023-05-10T11:23:58;240.47;;;81.10;;
14066;SDS011;7108;42.684;23.350;2023-05-10T11:26:25;234.63;;;78.57;;
14066;SDS011;7108;42.684;23.350;2023-05-10T11:29:01;236.77;;;78.40;;
14066;SDS011;7108;42.684;23.350;2023-05-10T11:31:29;233.60;;;79.33;;
14066;SDS011;7108;42.684;23.350;2023-05-10T11:33:56;245.73;;;81.77;;
14066;SDS011;7108;42.684;23.350;2023-05-10T11:36:26;238.73;;;80.50;;
14066;SDS011;7108;42.684;23.350;2023-05-10T11:38:54;262.67;;;85.60;;
14066;SDS011;7108;42.684;23.350;2023-05-10T11:41:21;243.93;;;81.03;;
14066;SDS011;7108;42.684;23.350;2023-05-10T11:43:51;241.93;;;82.07;;
14066;SDS011;7108;42.684;23.350;2023-05-10T11:46:22;243.67;;;83.43;;
14066;SDS011;7108;42.684;23.350;2023-05-10T11:48:49;246.87;;;82.47;;
14066;SDS011;7108;42.684;23.350;2023-05-10T11:51:19;241.83;;;83.13;;
14066;SDS011;7108;42.684;23.350;2023-05-10T11:53:46;244.43;;;83.63;;
14066;SDS011;7108;42.684;23.350;2023-05-10T11:56:11;233.10;;;82.77;;
14066;SDS011;7108;42.684;23.350;2023-05-10T11:58:37;220.67;;;79.47;;
14066;SDS011;7108;42.684;23.350;2023-05-10T12:01:07;237.03;;;81.37;;
14066;SDS011;7108;42.684;23.350;2023-05-10T12:03:35;221.30;;;78.10;;
14066;SDS011;7108;42.684;23.350;2023-05-10T12:06:01;239.17;;;79.77;;
14066;SDS011;7108;42.684;23.350;2023-05-10T12:08:28;242.43;;;82.37;;
14066;SDS011;7108;42.684;23.350;2023-05-10T12:11:05;242.17;;;78.63;;
14066;SDS011;7108;42.684;23.350;2023-05-10T12:13:37;229.13;;;78.27;;
14066;SDS011;7108;42.684;23.350;2023-05-10T12:16:16;237.07;;;77.83;;
14066;SDS011;7108;42.684;23.350;2023-05-10T12:18:49;241.07;;;77.50;;
14066;SDS011;7108;42.684;23.350;2023-05-10T12:21:16;234.43;;;77.83;;
14066;SDS011;7108;42.684;23.350;2023-05-10T12:23:42;221.80;;;80.40;;
14066;SDS011;7108;42.684;23.350;2023-05-10T12:26:10;245.17;;;80.60;;
14066;SDS011;7108;42.684;23.350;2023-05-10T12:28:36;218.40;;;79.80;;
14066;SDS011;7108;42.684;23.350;2023-05-10T12:31:02;285.63;;;85.37;;
14066;SDS011;7108;42.684;23.350;2023-05-10T12:33:35;303.83;;;90.57;;
14066;SDS011;7108;42.684;23.350;2023-05-10T12:36:08;235.43;;;80.23;;
14066;SDS011;7108;42.684;23.350;2023-05-10T12:38:36;217.17;;;78.33;;
14066;SDS011;7108;42.684;23.350;2023-05-10T12:41:04;236.33;;;81.17;;
14066;SDS011;7108;42.684;23.350;2023-05-10T12:43:35;227.27;;;80.23;;
14066;SDS011;7108;42.684;23.350;2023-05-10T12:46:04;235.90;;;79.23;;
14066;SDS011;7108;42.684;23.350;2023-05-10T12:48:34;216.70;;;79.40;;
14066;SDS011;7108;42.684;23.350;2023-05-10T12:51:01;232.23;;;79.37;;
14066;SDS011;7108;42.684;23.350;2023-05-10T12:53:26;235.83;;;77.87;;
14066;SDS011;7108;42.684;23.350;2023-05-10T12:55:52;248.77;;;81.90;;
14066;SDS011;7108;42.684;23.350;2023-05-10T12:58:18;237.40;;;78.97;;
14066;SDS011;7108;42.684;23.350;2023-05-10T13:00:43;237.03;;;78.27;;
14066;SDS011;7108;42.684;23.350;2023-05-10T13:03:09;234.90;;;81.03;;
14066;SDS011;7108;42.684;23.350;2023-05-10T13:05:35;231.53;;;80.60;;
14066;SDS011;7108;42.684;23.350;2023-05-10T13:08:01;223.03;;;76.67;;
14066;SDS011;7108;42.684;23.350;2023-05-10T13:10:28;244.73;;;84.07;;
14066;SDS011;7108;42.684;23.350;2023-05-10T13:12:57;262.13;;;83.13;;
14066;SDS011;7108;42.684;23.350;2023-05-10T13:15:23;244.20;;;81.47;;
14066;SDS011;7108;42.684;23.350;2023-05-10T13:17:50;241.77;;;80.73;;
14066;SDS011;7108;42.684;23.350;2023-05-10T13:20:15;240.97;;;82.53;;
14066;SDS011;7108;42.684;23.350;2023-05-10T13:22:41;221.23;;;79.73;;
14066;SDS011;7108;42.684;23.350;2023-05-10T13:25:07;245.73;;;86.40;;
14066;SDS011;7108;42.684;23.350;2023-05-10T13:27:33;216.00;;;79.57;;
14066;SDS011;7108;42.684;23.350;2023-05-10T13:29:59;233.33;;;79.83;;
14066;SDS011;7108;42.684;23.350;2023-05-10T13:32:25;257.30;;;85.33;;
14066;SDS011;7108;42.684;23.350;2023-05-10T13:34:51;225.43;;;78.03;;
14066;SDS011;7108;42.684;23.350;2023-05-10T13:37:16;234.70;;;83.63;;
14066;SDS011;7108;42.684;23.350;2023-05-10T13:39:42;237.43;;;80.90;;
14066;SDS011;7108;42.684;23.350;2023-05-10T13:42:07;233.60;;;77.60;;
14066;SDS011;7108;42.684;23.350;2023-05-10T13:44:33;213.67;;;76.50;;
14066;SDS011;7108;42.684;23.350;2023-05-10T13:46:58;244.33;;;79.97;;
14066;SDS011;7108;42.684;23.350;2023-05-10T13:49:24;237.43;;;79.83;;
14066;SDS011;7108;42.684;23.350;2023-05-10T13:51:49;241.40;;;81.47;;
14066;SDS011;7108;42.684;23.350;2023-05-10T13:54:15;236.33;;;78.60;;
14066;SDS011;7108;42.684;23.350;2023-05-10T13:56:44;241.13;;;81.93;;
14066;SDS011;7108;42.684;23.350;2023-05-10T13:59:15;272.57;;;86.37;;
14066;SDS011;7108;42.684;23.350;2023-05-10T14:01:40;266.60;;;82.90;;
14066;SDS011;7108;42.684;23.350;2023-05-10T14:04:07;309.73;;;88.33;;
14066;SDS011;7108;42.684;23.350;2023-05-10T14:06:35;280.10;;;86.43;;
14066;SDS011;7108;42.684;23.350;2023-05-10T14:09:01;265.17;;;84.40;;
14066;SDS011;7108;42.684;23.350;2023-05-10T14:11:27;273.63;;;88.00;;
14066;SDS011;7108;42.684;23.350;2023-05-10T14:13:52;278.33;;;86.57;;
14066;SDS011;7108;42.684;23.350;2023-05-10T14:16:18;279.20;;;86.40;;
14066;SDS011;7108;42.684;23.350;2023-05-10T14:18:44;285.13;;;84.47;;
14066;SDS011;7108;42.684;23.350;2023-05-10T14:21:09;266.33;;;86.40;;
14066;SDS011;7108;42.684;23.350;2023-05-10T14:23:35;268.10;;;86.80;;
14066;SDS011;7108;42.684;23.350;2023-05-10T14:26:00;285.67;;;85.13;;
14066;SDS011;7108;42.684;23.350;2023-05-10T14:28:26;271.17;;;86.93;;
14066;SDS011;7108;42.684;23.350;2023-05-10T14:30:51;293.83;;;86.43;;
14066;SDS011;7108;42.684;23.350;2023-05-10T14:33:18;280.50;;;87.80;;
14066;SDS011;7108;42.684;23.350;2023-05-10T14:35:44;276.47;;;86.27;;
14066;SDS011;7108;42.684;23.350;2023-05-10T14:38:10;287.87;;;85.70;;
14066;SDS011;7108;42.684;23.350;2023-05-10T14:40:35;262.97;;;84.80;;
14066;SDS011;7108;42.684;23.350;2023-05-10T14:43:01;301.73;;;90.97;;
14066;SDS011;7108;42.684;23.350;2023-05-10T14:45:26;273.33;;;84.63;;
14066;SDS011;7108;42.684;23.350;2023-05-10T14:47:52;277.93;;;84.13;;
14066;SDS011;7108;42.684;23.350;2023-05-10T14:50:17;280.53;;;84.00;;
14066;SDS011;7108;42.684;23.350;2023-05-10T14:52:44;277.87;;;88.70;;
14066;SDS011;7108;42.684;23.350;2023-05-10T14:55:12;265.40;;;84.20;;
14066;SDS011;7108;42.684;23.350;2023-05-10T14:57:38;268.80;;;83.33;;